createdAt,value
2019-05-15T00:02:24.321Z,94505.06
2019-05-15T00:04:51.013Z,94515.98
2019-05-15T00:07:18.281Z,94510.91
2019-05-15T00:09:45.379Z,94509.09
2019-05-15T00:12:12.084Z,94507.28
2019-05-15T00:14:38.935Z,94517.28
2019-05-15T00:17:08.133Z,94519.57
2019-05-15T00:19:34.546Z,94514.40
2019-05-15T00:22:02.467Z,94516.88
2019-05-15T00:24:29.283Z,94523.56
2019-05-15T00:26:55.974Z,94533.59
2019-05-15T00:29:22.653Z,94522.52
2019-05-15T00:31:49.482Z,94529.75
2019-05-15T00:34:18.306Z,94528.41
2019-05-15T00:36:45.050Z,94537.80
2019-05-15T00:39:11.866Z,94535.88
2019-05-15T00:41:50.364Z,94531.86
2019-05-15T00:44:09.257Z,94535.31
2019-05-15T00:46:38.271Z,94539.55
2019-05-15T00:49:04.579Z,94536.75
2019-05-15T00:51:31.340Z,94538.91
2019-05-15T00:53:58.930Z,94530.58
2019-05-15T00:56:28.295Z,94542.42
2019-05-15T00:58:54.478Z,94540.23
2019-05-15T01:01:21.221Z,94548.17
2019-05-15T01:03:49.322Z,94551.13
2019-05-15T01:06:18.933Z,94556.27
2019-05-15T01:08:44.981Z,94558.23
2019-05-15T01:11:11.658Z,94551.99
2019-05-15T01:13:38.968Z,94549.66
2019-05-15T01:16:06.001Z,94546.06
2019-05-15T01:18:32.707Z,94552.52
2019-05-15T01:20:59.389Z,94554.03
2019-05-15T01:23:28.160Z,94551.87
2019-05-15T01:25:54.760Z,94545.41
2019-05-15T01:28:21.443Z,94542.39
2019-05-15T01:30:48.650Z,94540.39
2019-05-15T01:33:18.748Z,94534.53
2019-05-15T01:35:45.409Z,94543.41
2019-05-15T01:38:12.152Z,94541.14
2019-05-15T01:40:38.877Z,94546.28
2019-05-15T01:43:05.726Z,94546.42
2019-05-15T01:45:32.525Z,94545.37
2019-05-15T01:47:59.268Z,94546.38
2019-05-15T01:50:25.950Z,94552.31
2019-05-15T01:52:52.697Z,94561.48
2019-05-15T01:55:19.373Z,94555.36
2019-05-15T02:00:31.086Z,94549.33
2019-05-15T02:02:58.786Z,94547.37
2019-05-15T02:05:25.634Z,94547.91
2019-05-15T02:07:52.337Z,94549.41
2019-05-15T02:10:19.006Z,94548.19
2019-05-15T02:12:48.005Z,94549.66
2019-05-15T02:15:14.526Z,94546.45
2019-05-15T02:17:41.368Z,94546.61
2019-05-15T02:20:08.572Z,94540.45
2019-05-15T02:22:35.492Z,94543.50
2019-05-15T02:25:02.598Z,94544.08
2019-05-15T02:27:29.635Z,94545.33
2019-05-15T02:30:12.974Z,94546.08
2019-05-15T02:32:25.172Z,94547.88
2019-05-15T02:34:51.898Z,94547.67
2019-05-15T02:37:19.200Z,94548.07
2019-05-15T02:39:49.335Z,94546.15
2019-05-15T02:42:14.726Z,94552.77
2019-05-15T02:44:41.395Z,94556.61
2019-05-15T02:47:09.224Z,94551.59
2019-05-15T02:49:39.388Z,94547.03
2019-05-15T02:52:04.984Z,94550.02
2019-05-15T02:54:31.705Z,94548.54
2019-05-15T02:56:59.114Z,94546.73
2019-05-15T02:59:28.870Z,94543.21
2019-05-15T03:01:54.646Z,94538.71
2019-05-15T03:04:21.377Z,94544.01
2019-05-15T03:06:49.583Z,94553.23
2019-05-15T03:09:18.788Z,94545.52
2019-05-15T03:11:45.304Z,94552.84
2019-05-15T03:14:12.002Z,94550.39
2019-05-15T03:16:39.965Z,94558.47
2019-05-15T03:19:09.953Z,94565.77
2019-05-15T03:21:38.668Z,94566.34
2019-05-15T03:24:04.523Z,94559.25
2019-05-15T03:26:31.384Z,94563.59
2019-05-15T03:28:59.081Z,94559.39
2019-05-15T03:31:47.675Z,94559.02
2019-05-15T03:33:55.314Z,94566.19
2019-05-15T03:36:24.055Z,94572.43
2019-05-15T03:38:51.900Z,94572.36
2019-05-15T03:41:19.625Z,94575.27
2019-05-15T03:43:49.485Z,94576.52
2019-05-15T03:46:15.140Z,94584.53
2019-05-15T03:48:41.901Z,94576.07
2019-05-15T03:51:09.369Z,94575.20
2019-05-15T03:53:39.531Z,94580.78
2019-05-15T03:56:04.974Z,94574.72
2019-05-15T03:58:31.777Z,94585.16
2019-05-15T04:01:00.314Z,94585.27
2019-05-15T04:03:29.921Z,94586.64
2019-05-15T04:05:55.976Z,94588.92
2019-05-15T04:08:22.642Z,94582.09
2019-05-15T04:10:49.358Z,94583.36
2019-05-15T04:13:19.354Z,94579.18
2019-05-15T04:15:46.120Z,94574.01
2019-05-15T04:18:13.821Z,94577.82
2019-05-15T04:20:41.083Z,94582.06
2019-05-15T04:23:10.235Z,94586.27
2019-05-15T04:25:39.157Z,94578.15
2019-05-15T04:28:09.664Z,94583.78
2019-05-15T04:30:38.917Z,94585.00
2019-05-15T04:33:04.748Z,94590.04
2019-05-15T04:35:31.481Z,94586.96
2019-05-15T04:37:59.802Z,94582.83
2019-05-15T04:40:29.699Z,94585.97
2019-05-15T04:42:55.386Z,94590.55
2019-05-15T04:45:22.165Z,94590.16
2019-05-15T04:47:49.847Z,94581.67
2019-05-15T04:50:19.294Z,94579.78
2019-05-15T04:52:45.676Z,94582.59
2019-05-15T04:55:12.701Z,94582.59
2019-05-15T04:57:40.399Z,94588.48
2019-05-15T05:00:09.647Z,94593.12
2019-05-15T05:02:40.107Z,94588.14
2019-05-15T05:05:05.739Z,94589.58
2019-05-15T05:07:33.487Z,94587.99
2019-05-15T05:10:00.165Z,94592.21
2019-05-15T05:12:28.934Z,94582.10
2019-05-15T05:14:55.645Z,94586.98
2019-05-15T05:17:22.307Z,94586.11
2019-05-15T05:19:51.356Z,94584.55
2019-05-15T05:22:18.717Z,94585.31
2019-05-15T05:24:47.805Z,94584.36
2019-05-15T05:27:14.682Z,94586.43
2019-05-15T05:29:41.450Z,94581.81
2019-05-15T05:32:09.199Z,94585.59
2019-05-15T05:34:36.100Z,94590.25
2019-05-15T05:37:02.842Z,94585.75
2019-05-15T05:39:29.566Z,94594.47
2019-05-15T05:41:58.658Z,94587.89
2019-05-15T05:44:25.214Z,94599.52
2019-05-15T05:46:51.899Z,94594.29
2019-05-15T05:49:18.654Z,94599.67
2019-05-15T05:51:47.941Z,94601.19
2019-05-15T05:54:14.063Z,94600.73
2019-05-15T05:56:41.009Z,94609.13
2019-05-15T05:59:09.397Z,94607.14
2019-05-15T06:01:43.238Z,94605.29
2019-05-15T06:04:04.998Z,94606.02
2019-05-15T06:06:31.745Z,94602.87
2019-05-15T06:08:58.486Z,94610.92
2019-05-15T06:11:27.618Z,94614.20
2019-05-15T06:13:54.167Z,94614.77
2019-05-15T06:16:21.282Z,94618.98
2019-05-15T06:18:49.188Z,94619.73
2019-05-15T06:21:17.950Z,94625.84
2019-05-15T06:23:46.842Z,94622.14
2019-05-15T06:26:13.526Z,94621.41
2019-05-15T06:28:40.359Z,94616.83
2019-05-15T06:31:08.824Z,94613.14
2019-05-15T06:33:38.205Z,94626.14
2019-05-15T06:36:04.697Z,94627.33
2019-05-15T06:38:31.412Z,94625.79
2019-05-15T06:40:58.367Z,94629.21
2019-05-15T06:43:25.339Z,94627.47
2019-05-15T06:50:44.147Z,94635.00
2019-05-15T06:53:11.076Z,94643.53
2019-05-15T06:55:38.795Z,94637.49
2019-05-15T06:58:09.032Z,94633.34
2019-05-15T07:00:34.900Z,94634.24
2019-05-15T07:03:16.482Z,94632.34
2019-05-15T07:05:30.621Z,94638.67
2019-05-15T07:07:58.497Z,94637.46
2019-05-15T07:10:25.418Z,94639.75
2019-05-15T07:12:52.192Z,94630.31
2019-05-15T07:15:19.064Z,94635.02
2019-05-15T07:17:48.258Z,94634.88
2019-05-15T07:20:15.007Z,94633.73
2019-05-15T07:22:40.840Z,94633.05
2019-05-15T07:25:09.209Z,94636.89
2019-05-15T07:30:02.702Z,94647.57
2019-05-15T07:32:29.424Z,94639.14
2019-05-15T07:34:57.830Z,94643.63
2019-05-15T07:37:24.843Z,94640.34
2019-05-15T07:39:51.559Z,94643.47
2019-05-15T07:42:18.654Z,94649.57
2019-05-15T07:44:48.012Z,94652.22
2019-05-15T07:47:14.210Z,94645.94
2019-05-15T07:49:40.904Z,94633.14
2019-05-15T07:52:08.623Z,94635.38
2019-05-15T07:54:38.160Z,94629.44
2019-05-15T07:57:04.455Z,94632.38
2019-05-15T07:59:31.174Z,94629.88
2019-05-15T08:01:58.352Z,94621.94
2019-05-15T08:04:29.358Z,94627.44
2019-05-15T08:06:53.896Z,94634.85
2019-05-15T08:09:20.584Z,94636.77
2019-05-15T08:11:48.679Z,94641.62
2019-05-15T08:14:18.313Z,94641.51
2019-05-15T08:16:44.324Z,94638.09
2019-05-15T08:19:10.982Z,94636.98
2019-05-15T08:21:38.492Z,94644.34
2019-05-15T08:24:05.399Z,94650.92
2019-05-15T08:26:32.162Z,94646.25
2019-05-15T08:28:58.955Z,94650.66
2019-05-15T08:31:25.630Z,94659.17
2019-05-15T08:33:52.320Z,94657.41
2019-05-15T08:36:19.111Z,94653.62
2019-05-15T08:38:45.791Z,94659.66
2019-05-15T08:41:15.514Z,94667.98
2019-05-15T08:43:41.182Z,94659.20
2019-05-15T08:46:08.451Z,94667.24
2019-05-15T08:48:38.137Z,94657.19
2019-05-15T08:51:05.231Z,94655.12
2019-05-15T08:53:33.563Z,94663.77
2019-05-15T08:56:00.507Z,94662.33
2019-05-15T08:58:29.074Z,94666.98
2019-05-15T09:00:58.478Z,94661.70
2019-05-15T09:03:24.605Z,94668.52
2019-05-15T09:05:51.486Z,94662.12
2019-05-15T09:08:19.727Z,94663.70
2019-05-15T09:10:46.721Z,94654.46
2019-05-15T09:13:13.476Z,94656.77
2019-05-15T09:15:40.184Z,94657.09
2019-05-15T09:18:14.946Z,94656.78
2019-05-15T09:20:38.172Z,94647.17
2019-05-15T09:23:04.172Z,94654.66
2019-05-15T09:25:30.913Z,94654.23
2019-05-15T09:27:58.029Z,94657.56
2019-05-15T09:30:24.757Z,94657.46
2019-05-15T09:32:51.427Z,94653.47
2019-05-15T09:35:19.359Z,94653.31
2019-05-15T09:37:48.681Z,94657.97
2019-05-15T09:40:14.658Z,94658.56
2019-05-15T09:42:41.569Z,94654.78
2019-05-15T09:45:09.114Z,94659.20
2019-05-15T09:47:39.717Z,94652.20
2019-05-15T09:50:08.622Z,94655.20
2019-05-15T09:52:35.561Z,94659.52
2019-05-15T09:55:04.290Z,94651.09
2019-05-15T09:57:31.099Z,94649.99
2019-05-15T09:59:58.728Z,94649.03
2019-05-15T10:02:28.255Z,94634.00
2019-05-15T10:05:06.074Z,94642.50
2019-05-15T10:07:23.068Z,94638.05
2019-05-15T10:09:52.345Z,94641.70
2019-05-15T10:12:18.532Z,94641.69
2019-05-15T10:14:45.224Z,94637.78
2019-05-15T10:17:11.965Z,94640.27
2019-05-15T10:19:38.685Z,94646.16
2019-05-15T10:22:05.446Z,94653.78
2019-05-15T10:24:32.299Z,94651.95
2019-05-15T10:26:59.070Z,94651.70
2019-05-15T10:29:28.022Z,94654.09
2019-05-15T10:31:54.401Z,94651.70
2019-05-15T10:34:21.229Z,94652.08
2019-05-15T10:36:49.561Z,94658.05
2019-05-15T10:44:09.192Z,94641.27
2019-05-15T10:46:38.157Z,94640.53
2019-05-15T10:51:30.782Z,94645.97
2019-05-15T10:53:57.466Z,94648.50
2019-05-15T10:56:24.208Z,94653.00
2019-05-15T10:58:51.025Z,94656.44
2019-05-15T11:01:19.151Z,94662.58
2019-05-15T11:03:46.305Z,94655.72
2019-05-15T11:06:13.328Z,94647.01
2019-05-15T11:08:40.856Z,94644.22
2019-05-15T11:11:09.230Z,94645.89
2019-05-15T11:16:01.463Z,94664.16
2019-05-15T11:18:30.769Z,94659.66
2019-05-15T11:20:58.610Z,94666.48
2019-05-15T11:23:25.521Z,94672.38
2019-05-15T11:25:51.392Z,94673.55
2019-05-15T11:28:18.150Z,94670.72
2019-05-15T11:30:44.685Z,94655.47
2019-05-15T11:33:11.484Z,94659.41
2019-05-15T11:35:39.269Z,94668.02
2019-05-15T11:38:10.119Z,94669.16
2019-05-15T11:40:35.736Z,94673.85
2019-05-15T11:43:02.566Z,94665.68
2019-05-15T11:45:29.413Z,94664.68
2019-05-15T11:47:56.177Z,94669.55
2019-05-15T11:50:22.315Z,94659.46
2019-05-15T11:52:49.308Z,94662.39
2019-05-15T11:55:16.337Z,94677.41
2019-05-15T11:57:47.221Z,94667.09
2019-05-15T12:00:17.162Z,94660.53
2019-05-15T12:02:41.029Z,94664.55
2019-05-15T12:05:09.298Z,94663.45
2019-05-15T12:07:38.182Z,94675.80
2019-05-15T12:10:09.881Z,94673.38
2019-05-15T12:12:34.926Z,94675.27
2019-05-15T12:15:03.730Z,94683.61
2019-05-15T12:17:32.487Z,94683.42
2019-05-15T12:20:05.632Z,94676.54
2019-05-15T12:22:29.378Z,94675.05
2019-05-15T12:24:56.130Z,94677.42
2019-05-15T12:27:22.843Z,94665.53
2019-05-15T12:29:49.545Z,94658.33
2019-05-15T12:32:26.539Z,94667.54
2019-05-15T12:34:45.022Z,94675.50
2019-05-15T12:37:11.776Z,94673.72
2019-05-15T12:39:40.889Z,94674.20
2019-05-15T13:01:58.627Z,94659.53
2019-05-15T13:04:25.255Z,94660.23
2019-05-15T13:07:10.408Z,94673.50
2019-05-15T13:09:20.751Z,94680.88
2019-05-15T13:11:48.512Z,94671.34
2019-05-15T13:14:15.344Z,94676.72
2019-05-15T13:16:42.105Z,94676.72
2019-05-15T13:19:08.829Z,94679.68
2019-05-15T13:21:37.917Z,94677.64
2019-05-15T13:24:04.252Z,94674.19
2019-05-15T13:26:31.181Z,94676.84
2019-05-15T13:28:58.461Z,94667.77
2019-05-15T13:31:25.416Z,94680.92
2019-05-15T13:33:52.109Z,94678.94
2019-05-15T13:36:19.878Z,94664.70
2019-05-15T13:38:48.231Z,94666.91
2019-05-15T13:41:15.305Z,94656.09
2019-05-15T13:43:43.256Z,94662.33
2019-05-15T13:46:09.966Z,94659.81
2019-05-15T13:48:38.637Z,94667.09
2019-05-15T13:51:05.321Z,94667.50
2019-05-15T13:53:32.008Z,94672.16
2019-05-15T13:55:58.688Z,94658.26
2019-05-15T13:58:28.042Z,94666.64
2019-05-15T14:00:54.165Z,94671.36
2019-05-15T14:03:20.869Z,94679.44
2019-05-15T14:05:49.865Z,94669.18
2019-05-15T14:08:18.025Z,94665.47
2019-05-15T14:10:44.786Z,94659.44
2019-05-15T14:13:11.607Z,94652.81
2019-05-15T14:15:39.384Z,94659.81
2019-05-15T14:18:08.377Z,94667.41
2019-05-15T14:20:34.782Z,94688.48
2019-05-15T14:23:01.678Z,94680.38
2019-05-15T14:25:28.405Z,94681.73
2019-05-15T14:27:55.204Z,94690.38
2019-05-15T14:30:22.324Z,94692.31
2019-05-15T14:32:49.019Z,94694.30
2019-05-15T14:35:18.016Z,94715.66
2019-05-15T14:37:44.546Z,94721.97
2019-05-15T14:40:11.856Z,94717.12
2019-05-15T14:42:39.400Z,94731.31
2019-05-15T14:45:08.735Z,94740.98
2019-05-15T14:47:38.034Z,94761.05
2019-05-15T14:50:04.809Z,94762.03
2019-05-15T14:52:31.493Z,94760.73
2019-05-15T14:54:59.052Z,94772.50
2019-05-15T14:57:26.102Z,94781.50
2019-05-15T14:59:52.820Z,94798.95
2019-05-15T15:02:19.690Z,94767.11
2019-05-15T15:04:48.604Z,94750.63
2019-05-15T15:07:15.552Z,94764.01
2019-05-15T15:09:42.290Z,94756.77
2019-05-15T15:12:09.033Z,94760.94
2019-05-15T15:14:37.859Z,94766.67
2019-05-15T15:17:04.587Z,94780.14
2019-05-15T15:19:31.295Z,94763.44
2019-05-15T15:21:58.117Z,94772.23
2019-05-15T15:24:24.906Z,94755.86
2019-05-15T15:26:51.594Z,94752.97
2019-05-15T15:29:19.069Z,94755.39
2019-05-15T15:31:49.155Z,94768.61
2019-05-15T15:34:15.142Z,94772.02
2019-05-15T15:36:41.856Z,94777.30
2019-05-15T15:39:08.611Z,94783.46
2019-05-15T15:41:35.426Z,94772.23
2019-05-15T15:44:02.447Z,94771.48
2019-05-15T15:46:29.201Z,94758.42
2019-05-15T15:48:55.882Z,94744.34
2019-05-15T15:51:23.052Z,94745.41
2019-05-15T15:53:49.939Z,94759.32
2019-05-15T15:56:18.448Z,94760.88
2019-05-15T15:58:45.379Z,94763.41
2019-05-15T16:01:12.129Z,94769.62
2019-05-15T16:03:38.866Z,94759.88
2019-05-15T16:06:04.981Z,94748.46
2019-05-15T16:08:31.745Z,94730.06
2019-05-15T16:10:59.032Z,94756.94
2019-05-15T16:13:25.965Z,94749.07
2019-05-15T16:15:52.672Z,94767.95
2019-05-15T16:23:12.595Z,94755.48
2019-05-15T16:25:39.328Z,94777.73
2019-05-15T16:28:08.173Z,94776.88
2019-05-15T16:30:48.174Z,94781.18
2019-05-15T16:33:03.649Z,94781.98
2019-05-15T16:35:30.430Z,94774.91
2019-05-15T16:37:58.479Z,94769.33
2019-05-15T16:40:25.522Z,94758.66
2019-05-15T16:42:52.242Z,94762.69
2019-05-15T16:45:19.121Z,94764.94
2019-05-15T16:47:48.027Z,94770.30
2019-05-15T16:50:14.942Z,94788.79
2019-05-15T16:52:41.709Z,94777.03
2019-05-15T16:55:09.514Z,94776.74
2019-05-15T16:57:38.562Z,94784.23
2019-05-15T17:00:09.213Z,94773.03
2019-05-15T17:02:35.393Z,94769.11
2019-05-15T17:05:02.106Z,94743.98
2019-05-15T17:07:29.135Z,94747.91
2019-05-15T17:09:55.943Z,94748.56
2019-05-15T17:12:22.743Z,94736.11
2019-05-15T17:14:49.591Z,94738.81
2019-05-15T17:17:18.380Z,94739.81
2019-05-15T17:19:44.986Z,94740.91
2019-05-15T17:22:11.756Z,94741.23
2019-05-15T17:24:38.851Z,94741.30
2019-05-15T17:27:08.265Z,94756.83
2019-05-15T17:29:34.503Z,94748.55
2019-05-15T17:32:01.447Z,94742.44
2019-05-15T17:34:28.639Z,94748.75
2019-05-15T17:36:58.166Z,94746.50
2019-05-15T17:39:34.647Z,94745.56
2019-05-15T17:41:52.938Z,94739.86
2019-05-15T17:44:31.822Z,94738.66
2019-05-15T17:46:58.608Z,94750.05
2019-05-15T17:49:25.352Z,94751.13
2019-05-15T17:51:52.143Z,94758.19
2019-05-15T17:54:18.868Z,94745.88
2019-05-15T17:56:48.256Z,94730.95
2019-05-15T17:59:14.551Z,94735.73
2019-05-15T18:01:41.448Z,94746.59
2019-05-15T18:04:08.580Z,94745.88
2019-05-15T18:06:35.472Z,94751.16
2019-05-15T18:09:02.568Z,94750.23
2019-05-15T18:11:30.563Z,94746.08
2019-05-15T18:13:58.238Z,94745.56
2019-05-15T18:16:25.122Z,94749.45
2019-05-15T18:18:51.856Z,94743.36
2019-05-15T18:21:19.865Z,94734.84
2019-05-15T18:23:48.685Z,94740.65
2019-05-15T18:26:15.382Z,94762.30
2019-05-15T18:28:42.321Z,94771.89
2019-05-15T18:31:09.223Z,94767.45
2019-05-15T18:33:38.334Z,94759.30
2019-05-15T18:36:09.242Z,94757.67
2019-05-15T18:38:38.631Z,94753.08
2019-05-15T18:41:05.269Z,94769.13
2019-05-15T18:43:32.122Z,94779.61
2019-05-15T18:45:58.861Z,94780.58
2019-05-15T18:48:25.659Z,94764.31
2019-05-15T18:50:52.525Z,94761.17
2019-05-15T18:53:19.264Z,94768.33
2019-05-15T18:55:45.945Z,94776.09
2019-05-15T18:58:12.764Z,94776.55
2019-05-15T19:00:40.145Z,94771.89
2019-05-15T19:03:19.179Z,94770.67
2019-05-15T19:05:35.785Z,94761.89
2019-05-15T19:08:02.488Z,94769.31
2019-05-15T19:10:30.263Z,94768.29
2019-05-15T19:12:58.175Z,94769.58
2019-05-15T19:15:25.348Z,94766.16
2019-05-15T19:17:52.148Z,94764.66
2019-05-15T19:20:19.127Z,94761.94
2019-05-15T19:22:48.044Z,94770.59
2019-05-15T19:25:17.816Z,94770.11
2019-05-15T19:27:44.382Z,94767.61
2019-05-15T19:30:11.693Z,94770.52
2019-05-15T19:32:39.093Z,94770.83
2019-05-15T19:35:08.007Z,94777.02
2019-05-15T19:37:34.915Z,94778.05
2019-05-15T19:40:01.760Z,94781.77
2019-05-15T19:42:28.793Z,94773.63
2019-05-15T19:44:55.617Z,94765.34
2019-05-15T19:47:22.406Z,94759.00
2019-05-15T19:49:49.140Z,94762.06
2019-05-15T19:52:17.771Z,94757.13
2019-05-15T19:54:45.500Z,94758.76
2019-05-15T19:57:12.299Z,94744.38
2019-05-15T19:59:39.236Z,94755.16
2019-05-15T20:02:08.436Z,94746.68
2019-05-15T20:04:35.154Z,94754.56
2019-05-15T20:07:01.946Z,94758.46
2019-05-15T20:09:28.735Z,94760.52
2019-05-15T20:11:55.482Z,94753.19
2019-05-15T20:14:22.275Z,94750.48
2019-05-15T20:16:49.033Z,94750.94
2019-05-15T20:19:18.146Z,94757.81
2019-05-15T20:21:45.036Z,94755.51
2019-05-15T20:24:11.840Z,94762.38
2019-05-15T20:26:39.707Z,94761.48
2019-05-15T20:29:08.912Z,94765.16
2019-05-15T20:31:35.038Z,94774.15
2019-05-15T20:34:05.883Z,94777.90
2019-05-15T20:36:30.728Z,94766.83
2019-05-15T20:38:58.843Z,94776.36
2019-05-15T20:41:25.831Z,94775.16
2019-05-15T20:43:52.585Z,94774.58
2019-05-15T20:46:19.621Z,94773.50
2019-05-15T20:48:48.571Z,94771.69
2019-05-15T20:51:15.082Z,94767.00
2019-05-15T20:53:41.801Z,94766.32
2019-05-15T20:56:08.602Z,94760.34
2019-05-15T20:58:38.347Z,94759.27
2019-05-15T21:01:05.299Z,94756.87
2019-05-15T21:03:32.243Z,94764.67
2019-05-15T21:06:00.838Z,94772.98
2019-05-15T21:08:28.874Z,94773.22
2019-05-15T21:10:58.502Z,94782.48
2019-05-15T21:13:24.475Z,94777.19
2019-05-15T21:15:51.187Z,94782.48
2019-05-15T21:18:19.994Z,94776.67
2019-05-15T21:20:48.338Z,94781.56
2019-05-15T21:23:15.104Z,94778.86
2019-05-15T21:25:41.862Z,94774.00
2019-05-15T21:28:08.561Z,94768.00
2019-05-15T21:30:35.270Z,94764.16
2019-05-15T21:33:02.068Z,94756.06
2019-05-15T21:35:30.580Z,94756.00
2019-05-15T21:37:57.825Z,94755.51
2019-05-15T21:40:25.002Z,94753.36
2019-05-15T21:42:51.694Z,94750.96
2019-05-15T21:45:18.543Z,94763.91
2019-05-15T21:47:45.469Z,94762.77
2019-05-15T21:50:13.930Z,94755.44
2019-05-15T21:52:40.585Z,94759.75
2019-05-15T21:55:09.262Z,94763.29
2019-05-15T21:57:40.020Z,94763.78
2019-05-15T22:00:11.895Z,94764.33
2019-05-15T22:02:39.695Z,94755.51
2019-05-15T22:05:08.609Z,94753.88
2019-05-15T22:07:38.826Z,94755.55
2019-05-15T22:10:10.421Z,94750.59
2019-05-15T22:12:37.624Z,94756.09
2019-05-15T22:15:05.966Z,94755.73
2019-05-15T22:17:34.985Z,94750.25
2019-05-15T22:20:01.844Z,94750.44
2019-05-15T22:22:29.749Z,94750.16
2019-05-15T22:24:56.437Z,94745.89
2019-05-15T22:27:23.155Z,94748.97
2019-05-15T22:29:49.850Z,94749.95
2019-05-15T22:32:18.602Z,94745.15
2019-05-15T22:34:45.576Z,94749.11
2019-05-15T22:37:14.177Z,94752.84
2019-05-15T22:39:40.876Z,94756.87
2019-05-15T22:42:08.248Z,94752.56
2019-05-15T22:44:38.382Z,94750.74
2019-05-15T22:47:04.816Z,94748.44
2019-05-15T22:49:31.659Z,94731.50
2019-05-15T22:51:58.425Z,94735.98
2019-05-15T22:54:25.177Z,94731.71
2019-05-15T22:56:52.042Z,94740.30
2019-05-15T22:59:18.817Z,94738.41
2019-05-15T23:01:45.493Z,94740.63
2019-05-15T23:04:12.354Z,94743.86
2019-05-15T23:06:39.105Z,94739.06
2019-05-15T23:09:05.943Z,94744.78
2019-05-15T23:11:32.704Z,94727.72
2019-05-15T23:13:59.398Z,94731.98
2019-05-15T23:16:28.248Z,94730.91
2019-05-15T23:18:54.897Z,94725.72
2019-05-15T23:21:21.760Z,94721.07
2019-05-15T23:23:48.883Z,94715.62
2019-05-15T23:26:16.062Z,94715.11
2019-05-15T23:28:42.761Z,94708.80
2019-05-15T23:31:09.436Z,94710.73
2019-05-15T23:33:38.726Z,94707.54
2019-05-15T23:36:05.479Z,94705.36
2019-05-15T23:38:32.142Z,94700.25
2019-05-15T23:40:59.103Z,94710.25
2019-05-15T23:43:28.141Z,94709.17
2019-05-15T23:45:54.417Z,94708.61
2019-05-15T23:48:21.401Z,94709.97
2019-05-15T23:50:48.637Z,94709.41
2019-05-15T23:53:17.267Z,94708.41
2019-05-15T23:55:44.080Z,94697.52
2019-05-15T23:58:10.771Z,94689.84
